Ripon, Wisconsin
Current Conditions -  °F | °C
As of 7:53 PM on Tuesday 21 Oct 2014 (Local Time) from KOSH Reporting Station
Clear Clear  
Wind Chill:   Ceiling: Unl
Heat Index:   Visibility: 10mi
Dew Point:   Wind: 5mph
Humidity: 60%   Direction: 90°E
Pressure: 30.25"   Gusts: NA
Location:  43.85°N, 88.84°W
Report Text: KOSH 220053Z 09004KT 10SM CLR 07/00 A3025 RMK AO2 SLP250 T00720000
Loading
Personal Weather Stations






























Interactive Weather Map New forecast layout! Learn more

10-Day Weather Forecast

Advertisements
Track Severe Weather on mobile